Details From KJFK - John F Kennedy Intl
To RJOR - Tottori
Flight Number -
Tags Real
Created
Modified
Stats Distance 5,938 nm / 10,997 km
Max Altitude 0 ft / 0 m
Waypoints 2
Social Downloads 0
Likes 0
Share VATSIM

Download

Looking for another format? Having issues loading an existing format? Contact us
Advertisement - Login to hide

Notes

None

Route

KJFK SAMON

ID Type Via Altitude Latitude Longitude Leg Dist Tot Dist Heading (true) Name
O KJFK APT - 0 ft / 0 m 40.62537˚ -73.77035˚ - 0 nm - -
O SAMON FIX - 0 ft / 0 m 36.24290˚ 134.50332˚ 5937 nm 5937 nm 337° / 201° -

Altitude Profile

Advertisement - Login to hide

Weather


0- 5 10 15 20 25 30 35+ Temperature / ° C

Clouds and Precipitation
Forecast for 2017-12-15 12:00 UTC. Updated an hour ago

Ground ~20,000 ft ~40,000 ft Winds

KJFK

Details ICAO KJFK (JFK)
Name John F Kennedy Intl
Region United States
Timezone America/New_York (UTC-5.0)
Stats Elevation 13 ft / 4 m (AMSL)
Location 40.639904° -73.776661°
Runways 4
Magnetic Variation 12.995° W

METAR

KJFK 151151Z 02003KT 10SM FEW050 BKN150 BKN200 M06/M12 A3013 RMK AO2 SLP202 70002 T10611117 11056 21067 53006

Decode

TAF

TAF KJFK 151128Z 1512/1618 31006KT P6SM BKN250 FM151400 28005KT P6SM FEW040 BKN150 FM151700 25006KT P6SM SCT030 BKN050 FM152000 26006KT 2SM -SN SCT015 OVC025 TEMPO 1520/1524 1/2SM SN BKN015 FM160200 27009KT P6SM SCT035 BKN070 FM160400 28011KT P6SM SCT150 FM160700 27014G20KT P6SM FEW070 FEW250 FM161500 27017G25KT P6SM FEW250

Decode

Departure Runways

ID Width Length Bearing (true) Bearing (mag) Surface Threshold Offset Overrun Length
04L 151 ft / 46 m 11,358 ft / 3,462 m 30.66° 43.66° Asphalt 0 ft / 0 m 200 ft / 61 m
04R 200 ft / 61 m 8,405 ft / 2,562 m 30.67° 43.67° Asphalt 0 ft / 0 m 0 ft / 0 m
13L 151 ft / 46 m 9,986 ft / 3,044 m 120.85° 133.85° Asphalt 988 ft / 301 m 400 ft / 122 m
13R 151 ft / 46 m 14,553 ft / 4,436 m 120.83° 133.83° Asphalt 2,605 ft / 794 m 400 ft / 122 m
22L 200 ft / 61 m 8,405 ft / 2,562 m 210.68° 223.68° Asphalt 0 ft / 0 m 545 ft / 166 m
22R 151 ft / 46 m 11,358 ft / 3,462 m 210.67° 223.67° Asphalt 2,697 ft / 822 m 604 ft / 184 m
31L 151 ft / 46 m 14,553 ft / 4,436 m 300.86° 313.86° Asphalt 3,317 ft / 1,011 m 600 ft / 183 m
31R 151 ft / 46 m 9,986 ft / 3,044 m 300.87° 313.87° Asphalt 1,030 ft / 314 m 246 ft / 75 m

RJOR

Details ICAO RJOR (TTJ)
Name TOTTORI
Region Japan
Timezone Asia/Tokyo (UTC+9.0)
Stats Elevation 65 ft / 20 m (AMSL)
Location 35.530048° 134.165050°
Runways 1
Magnetic Variation 7.994° W

METAR

RJOR 151200Z 17006KT 9999 FEW035 SCT060 BKN/// 07/M02 Q1019

Decode

TAF

Not found

Destination Runways

ID Width Length Bearing (true) Bearing (mag) Surface Threshold Offset Overrun Length
10 150 ft / 46 m 6,550 ft / 1,996 m 93.80° 101.79° Asphalt 0 ft / 0 m 190 ft / 58 m
28 150 ft / 46 m 6,550 ft / 1,996 m 273.81° 281.80° Asphalt 0 ft / 0 m 190 ft / 58 m